createdAt,value
2019-02-23T00:00:29.065Z,15.90
2019-02-23T00:01:39.529Z,14.50
2019-02-23T00:02:28.969Z,14.10
2019-02-23T00:03:29.022Z,12.60
2019-02-23T00:04:28.963Z,13.50
2019-02-23T00:05:29.095Z,12.50
2019-02-23T00:06:30.118Z,12.40
2019-02-23T00:07:28.856Z,14.20
2019-02-23T00:08:28.848Z,13.30
2019-02-23T00:09:38.392Z,12.60
2019-02-23T00:10:28.979Z,16.70
2019-02-23T00:11:28.886Z,14.50
2019-02-23T00:12:28.882Z,16.20
2019-02-23T00:13:28.922Z,15.30
2019-02-23T00:14:28.834Z,13.20
2019-02-23T00:15:28.771Z,14.90
2019-02-23T00:16:28.796Z,14.30
2019-02-23T00:17:28.774Z,13.90
2019-02-23T00:18:28.745Z,15.00
2019-02-23T00:19:28.729Z,13.10
2019-02-23T00:20:28.719Z,14.20
2019-02-23T00:21:28.727Z,13.40
2019-02-23T00:22:28.730Z,13.70
2019-02-23T00:23:28.690Z,14.80
2019-02-23T00:24:28.676Z,13.60
2019-02-23T00:25:29.677Z,13.50
2019-02-23T00:26:28.671Z,13.80
2019-02-23T00:27:28.637Z,11.80
2019-02-23T00:28:28.626Z,12.80
2019-02-23T00:29:28.630Z,13.50
2019-02-23T00:30:28.605Z,14.70
2019-02-23T00:31:28.623Z,12.10
2019-02-23T00:32:28.604Z,11.40
2019-02-23T00:33:28.593Z,13.50
2019-02-23T00:34:28.563Z,14.50
2019-02-23T00:35:28.570Z,16.30
2019-02-23T00:36:28.541Z,13.50
2019-02-23T00:37:28.542Z,15.90
2019-02-23T00:38:28.554Z,14.10
2019-02-23T00:39:28.516Z,13.50
2019-02-23T00:40:28.517Z,14.00
2019-02-23T00:41:28.487Z,14.00
2019-02-23T00:42:28.503Z,13.10
2019-02-23T00:43:28.461Z,14.10
2019-02-23T00:44:37.171Z,14.50
2019-02-23T00:45:28.547Z,17.20
2019-02-23T00:46:28.519Z,14.80
2019-02-23T00:47:28.498Z,15.00
2019-02-23T00:48:28.585Z,13.80
2019-02-23T00:49:35.870Z,13.30
2019-02-23T00:50:29.444Z,13.90
2019-02-23T00:51:28.413Z,15.50
2019-02-23T00:52:28.360Z,12.70
2019-02-23T00:53:28.393Z,13.90
2019-02-23T00:54:28.354Z,12.60
2019-02-23T00:55:28.364Z,12.50
2019-02-23T00:56:28.332Z,11.60
2019-02-23T00:57:28.310Z,14.70
2019-02-23T00:58:28.306Z,11.80
2019-02-23T00:59:28.303Z,12.10
2019-02-23T01:00:28.275Z,13.60
2019-02-23T01:01:28.390Z,14.10
2019-02-23T01:02:28.262Z,12.00
2019-02-23T01:03:28.245Z,12.00
2019-02-23T01:04:28.259Z,11.50
2019-02-23T01:05:28.249Z,14.70
2019-02-23T01:06:28.290Z,11.50
2019-02-23T01:07:28.201Z,12.10
2019-02-23T01:08:28.214Z,11.70
2019-02-23T01:09:28.190Z,11.80
2019-02-23T01:10:28.199Z,11.90
2019-02-23T01:11:28.162Z,11.80
2019-02-23T01:12:28.150Z,10.70
2019-02-23T01:13:28.129Z,11.70
2019-02-23T01:14:28.175Z,9.90
2019-02-23T01:15:28.143Z,10.40
2019-02-23T01:16:28.101Z,12.40
2019-02-23T01:17:28.095Z,10.20
2019-02-23T01:18:28.081Z,9.10
2019-02-23T01:19:28.071Z,10.30
2019-02-23T01:20:28.073Z,10.50
2019-02-23T01:21:28.082Z,11.20
2019-02-23T01:22:28.048Z,10.40
2019-02-23T01:23:28.026Z,9.00
2019-02-23T01:24:28.085Z,10.50
2019-02-23T01:25:28.011Z,10.20
2019-02-23T01:26:28.022Z,9.60
2019-02-23T01:27:27.989Z,8.90
2019-02-23T01:28:28.036Z,9.40
2019-02-23T01:29:27.965Z,9.80
2019-02-23T01:30:27.955Z,10.20
2019-02-23T01:31:27.938Z,10.50
2019-02-23T01:32:27.943Z,9.00
2019-02-23T01:33:27.922Z,8.30
2019-02-23T01:34:27.914Z,8.60
2019-02-23T01:35:27.929Z,9.80
2019-02-23T01:36:27.890Z,9.10
2019-02-23T01:37:27.889Z,9.20
2019-02-23T01:38:27.890Z,7.00
2019-02-23T01:39:27.855Z,9.10
2019-02-23T01:40:27.847Z,6.70
2019-02-23T01:41:27.832Z,8.90
2019-02-23T01:42:27.887Z,9.00
2019-02-23T01:43:27.809Z,8.30
2019-02-23T01:44:27.800Z,9.30
2019-02-23T01:45:27.873Z,10.70
2019-02-23T01:46:27.784Z,8.50
2019-02-23T01:47:27.761Z,10.10
2019-02-23T01:48:27.769Z,9.70
2019-02-23T01:49:27.754Z,12.30
2019-02-23T01:50:27.739Z,13.00
2019-02-23T01:51:27.746Z,11.70
2019-02-23T01:52:27.707Z,10.50
2019-02-23T01:53:27.728Z,12.00
2019-02-23T01:54:27.688Z,10.90
2019-02-23T01:55:27.678Z,11.20
2019-02-23T01:56:27.670Z,9.90
2019-02-23T01:57:27.656Z,10.30
2019-02-23T01:58:27.654Z,11.30
2019-02-23T01:59:27.681Z,13.50
2019-02-23T02:00:28.619Z,10.30
2019-02-23T02:01:27.624Z,11.20
2019-02-23T02:02:27.601Z,11.00
2019-02-23T02:03:27.592Z,10.40
2019-02-23T02:04:27.610Z,9.50
2019-02-23T02:05:27.662Z,11.80
2019-02-23T02:06:27.565Z,10.20
2019-02-23T02:07:27.626Z,11.50
2019-02-23T02:08:27.543Z,10.10
2019-02-23T02:09:27.562Z,9.40
2019-02-23T02:10:27.517Z,9.10
2019-02-23T02:11:27.519Z,9.00
2019-02-23T02:12:27.503Z,10.30
2019-02-23T02:13:27.526Z,9.60
2019-02-23T02:14:27.474Z,10.30
2019-02-23T02:15:27.472Z,9.70
2019-02-23T02:16:27.455Z,10.00
2019-02-23T02:17:27.440Z,7.90
2019-02-23T02:18:27.419Z,10.50
2019-02-23T02:19:27.426Z,9.30
2019-02-23T02:20:27.488Z,12.60
2019-02-23T02:21:27.390Z,9.60
2019-02-23T02:22:27.383Z,10.50
2019-02-23T02:23:27.387Z,9.50
2019-02-23T02:24:27.375Z,8.80
2019-02-23T02:25:27.346Z,9.30
2019-02-23T02:26:27.341Z,10.90
2019-02-23T02:27:27.328Z,9.80
2019-02-23T02:28:27.358Z,9.10
2019-02-23T02:29:27.304Z,10.40
2019-02-23T02:30:27.940Z,9.60
2019-02-23T02:31:27.305Z,11.70
2019-02-23T02:32:27.271Z,11.10
2019-02-23T02:33:27.276Z,10.30
2019-02-23T02:34:27.262Z,10.90
2019-02-23T02:35:27.264Z,9.60
2019-02-23T02:36:27.531Z,10.60
2019-02-23T02:37:27.249Z,9.80
2019-02-23T02:38:27.216Z,10.70
2019-02-23T02:39:27.207Z,9.90
2019-02-23T02:40:27.218Z,9.80
2019-02-23T02:41:27.188Z,9.40
2019-02-23T02:42:27.173Z,12.10
2019-02-23T02:43:27.159Z,8.60
2019-02-23T02:44:27.159Z,9.60
2019-02-23T02:45:27.939Z,9.60
2019-02-23T02:46:27.121Z,10.20
2019-02-23T02:47:36.891Z,11.20
2019-02-23T02:48:27.190Z,9.80
2019-02-23T02:49:27.121Z,11.20
2019-02-23T02:50:27.118Z,10.80
2019-02-23T02:51:27.142Z,10.30
2019-02-23T02:52:27.127Z,9.70
2019-02-23T02:53:27.981Z,10.00
2019-02-23T02:54:27.036Z,8.60
2019-02-23T02:55:27.049Z,12.20
2019-02-23T02:56:27.013Z,8.50
2019-02-23T02:57:27.016Z,9.70
2019-02-23T02:58:27.058Z,10.40
2019-02-23T02:59:26.977Z,10.70
2019-02-23T03:00:27.028Z,9.90
2019-02-23T03:01:26.967Z,9.30
2019-02-23T03:02:26.946Z,9.10
2019-02-23T03:03:26.980Z,9.40
2019-02-23T03:04:26.940Z,9.80
2019-02-23T03:05:26.910Z,11.20
2019-02-23T03:06:26.907Z,10.20
2019-02-23T03:07:26.886Z,11.30
2019-02-23T03:08:26.878Z,9.30
2019-02-23T03:09:27.004Z,9.20
2019-02-23T03:10:27.420Z,10.40
2019-02-23T03:11:26.851Z,10.90
2019-02-23T03:12:26.831Z,8.40
2019-02-23T03:13:26.827Z,9.00
2019-02-23T03:14:26.952Z,10.50
2019-02-23T03:15:27.462Z,8.20
2019-02-23T03:16:26.798Z,10.00
2019-02-23T03:17:26.777Z,9.40
2019-02-23T03:18:26.770Z,11.20
2019-02-23T03:19:26.760Z,11.30
2019-02-23T03:20:36.295Z,10.90
2019-02-23T03:21:27.767Z,10.10
2019-02-23T03:22:26.751Z,8.90
2019-02-23T03:23:26.721Z,9.40
2019-02-23T03:24:26.709Z,8.80
2019-02-23T03:25:26.695Z,12.60
2019-02-23T03:26:26.696Z,10.80
2019-02-23T03:27:26.685Z,10.80
2019-02-23T03:28:26.745Z,11.30
2019-02-23T03:29:26.659Z,11.40
2019-02-23T03:30:26.838Z,10.60
2019-02-23T03:31:26.654Z,11.00
2019-02-23T03:32:26.631Z,10.40
2019-02-23T03:33:26.616Z,8.50
2019-02-23T03:34:26.633Z,9.20
2019-02-23T03:35:26.587Z,7.90
2019-02-23T03:36:26.574Z,8.50
2019-02-23T03:37:26.572Z,10.70
2019-02-23T03:38:26.557Z,8.70
2019-02-23T03:39:37.847Z,9.30
2019-02-23T03:40:26.566Z,11.30
2019-02-23T03:41:27.500Z,9.10
2019-02-23T03:42:27.584Z,7.30
2019-02-23T03:43:35.282Z,8.70
2019-02-23T03:44:28.064Z,11.00
2019-02-23T03:45:26.529Z,8.70
2019-02-23T03:46:37.965Z,9.10
2019-02-23T03:47:37.199Z,10.00
2019-02-23T03:48:27.165Z,10.80
2019-02-23T03:49:26.446Z,8.20
2019-02-23T03:50:48.744Z,10.10
2019-02-23T03:51:27.476Z,11.00
2019-02-23T03:52:26.412Z,9.70
2019-02-23T03:53:26.449Z,7.70
2019-02-23T03:54:27.192Z,8.90
2019-02-23T03:55:26.521Z,7.40
2019-02-23T03:56:26.391Z,8.30
2019-02-23T03:57:26.342Z,8.90
2019-02-23T03:58:28.662Z,9.00
2019-02-23T03:59:26.321Z,9.80
2019-02-23T04:00:26.411Z,8.70
2019-02-23T04:01:26.485Z,9.00
2019-02-23T04:02:26.312Z,10.00
2019-02-23T04:03:26.280Z,7.80
2019-02-23T04:04:28.148Z,11.20
2019-02-23T04:05:26.253Z,7.50
2019-02-23T04:06:26.256Z,8.50
2019-02-23T04:07:26.322Z,7.70
2019-02-23T04:08:26.227Z,10.30
2019-02-23T04:09:26.244Z,8.10
2019-02-23T04:10:36.066Z,6.10
2019-02-23T04:11:37.363Z,9.30
2019-02-23T04:12:26.275Z,7.70
2019-02-23T04:13:40.845Z,7.20
2019-02-23T04:14:37.121Z,9.70
2019-02-23T04:15:26.214Z,9.40
2019-02-23T04:16:36.145Z,7.50
2019-02-23T04:17:26.234Z,8.70
2019-02-23T04:18:35.628Z,8.30
2019-02-23T04:20:37.530Z,8.50
2019-02-23T04:22:48.875Z,11.20
2019-02-23T04:23:48.724Z,9.50
2019-02-23T04:24:48.784Z,8.30
2019-02-23T04:25:48.865Z,8.40
2019-02-23T04:26:48.802Z,9.50
2019-02-23T04:27:48.650Z,6.90
2019-02-23T04:28:48.624Z,8.00
2019-02-23T04:29:49.299Z,9.50
2019-02-23T04:30:48.625Z,8.50
2019-02-23T04:31:48.582Z,8.00
2019-02-23T04:32:48.615Z,9.30
2019-02-23T04:33:58.489Z,9.10
2019-02-23T04:34:48.642Z,8.20
2019-02-23T04:35:48.562Z,9.70
2019-02-23T04:36:48.620Z,8.90
2019-02-23T04:37:49.395Z,10.10
2019-02-23T04:38:48.647Z,8.80
2019-02-23T04:39:48.515Z,7.60
2019-02-23T04:40:48.486Z,8.00
2019-02-23T04:41:59.408Z,7.20
2019-02-23T04:42:48.554Z,9.60
2019-02-23T04:43:48.522Z,7.50
2019-02-23T04:44:48.498Z,8.50
2019-02-23T04:45:48.583Z,8.50
2019-02-23T04:46:50.416Z,9.90
2019-02-23T04:47:48.410Z,7.50
2019-02-23T04:48:58.333Z,9.90
2019-02-23T04:49:48.442Z,7.80
2019-02-23T04:50:59.559Z,6.70
2019-02-23T04:51:48.470Z,10.60
2019-02-23T04:52:48.495Z,7.90
2019-02-23T04:53:48.458Z,7.80
2019-02-23T04:56:01.063Z,8.20
2019-02-23T04:57:01.894Z,8.90
2019-02-23T04:58:11.747Z,7.90
2019-02-23T04:59:10.416Z,9.20
2019-02-23T05:00:01.441Z,7.20
2019-02-23T05:01:01.813Z,8.90
2019-02-23T05:02:00.795Z,8.40
2019-02-23T05:03:00.778Z,12.20
2019-02-23T05:04:12.178Z,6.10
2019-02-23T05:05:00.836Z,7.80
2019-02-23T05:06:00.817Z,9.10
2019-02-23T05:07:00.793Z,7.90
2019-02-23T05:08:09.455Z,6.50
2019-02-23T05:09:00.888Z,8.40
2019-02-23T05:10:00.782Z,7.90
2019-02-23T05:11:00.747Z,8.80
2019-02-23T05:12:00.790Z,8.70
2019-02-23T05:13:00.736Z,8.20
2019-02-23T05:14:00.806Z,7.80
2019-02-23T05:15:09.562Z,8.00
2019-02-23T05:16:00.733Z,9.20
2019-02-23T05:17:01.555Z,8.20
2019-02-23T05:18:14.725Z,8.70
2019-02-23T05:19:01.773Z,10.10
2019-02-23T05:20:11.162Z,8.10
2019-02-23T05:21:11.420Z,9.30
2019-02-23T05:23:14.728Z,9.10
2019-02-23T05:24:14.594Z,9.80
2019-02-23T05:25:25.357Z,7.10
2019-02-23T05:26:14.560Z,8.90
2019-02-23T05:27:14.535Z,8.30
2019-02-23T05:29:33.147Z,8.90
2019-02-23T05:31:44.379Z,12.10
2019-02-23T05:32:54.321Z,9.50
2019-02-23T05:33:44.994Z,9.20
2019-02-23T05:34:53.725Z,8.00
2019-02-23T05:35:44.203Z,8.00
2019-02-23T05:36:44.192Z,10.40
2019-02-23T05:37:44.183Z,8.70
2019-02-23T05:38:44.152Z,9.00
2019-02-23T05:40:57.892Z,8.70
2019-02-23T05:43:09.157Z,8.50
2019-02-23T05:45:25.060Z,8.00
2019-02-23T05:46:25.465Z,8.20
2019-02-23T05:47:24.916Z,9.30
2019-02-23T05:48:35.544Z,7.60
2019-02-23T05:49:37.002Z,8.00
2019-02-23T05:50:24.879Z,7.70
2019-02-23T05:51:24.827Z,8.40
2019-02-23T05:52:34.168Z,8.30
2019-02-23T05:54:36.071Z,9.50
2019-02-23T05:56:47.464Z,10.70
2019-02-23T05:57:47.309Z,7.30
2019-02-23T05:58:47.260Z,8.20
2019-02-23T05:59:47.250Z,6.80
2019-02-23T06:00:47.329Z,7.40
2019-02-23T06:01:47.292Z,6.10
2019-02-23T06:02:47.264Z,8.00
2019-02-23T06:03:47.238Z,6.40
2019-02-23T06:04:47.298Z,6.30
2019-02-23T06:05:47.169Z,7.60
2019-02-23T06:06:47.138Z,8.50
2019-02-23T06:07:48.989Z,6.00
2019-02-23T06:08:47.139Z,5.60
2019-02-23T06:09:47.107Z,6.10
2019-02-23T06:10:55.794Z,7.20
2019-02-23T06:11:47.158Z,7.90
2019-02-23T06:12:47.101Z,8.40
2019-02-23T06:13:47.117Z,8.30
2019-02-23T06:14:47.103Z,6.90
2019-02-23T06:15:47.102Z,7.20
2019-02-23T06:16:47.073Z,7.70
2019-02-23T06:17:47.024Z,6.10
2019-02-23T06:18:47.049Z,7.80
2019-02-23T06:19:47.056Z,6.60
2019-02-23T06:20:47.550Z,7.20
2019-02-23T06:21:53.499Z,6.00
2019-02-23T06:22:48.022Z,8.80
2019-02-23T06:23:47.013Z,4.50
2019-02-23T06:24:55.641Z,6.30
2019-02-23T06:25:56.885Z,6.40
2019-02-23T06:27:58.308Z,9.20
2019-02-23T06:28:58.172Z,7.60
2019-02-23T06:29:58.221Z,7.50
2019-02-23T06:31:09.412Z,7.20
2019-02-23T06:32:06.845Z,9.00
2019-02-23T06:32:58.150Z,10.30
2019-02-23T06:34:15.409Z,7.30
2019-02-23T06:36:11.381Z,7.60
2019-02-23T06:37:11.285Z,6.90
2019-02-23T06:38:20.875Z,8.40
2019-02-23T06:39:11.316Z,7.50
2019-02-23T06:40:12.083Z,8.30
2019-02-23T06:41:11.314Z,8.00
2019-02-23T06:43:23.840Z,6.50
2019-02-23T06:44:22.477Z,8.10
2019-02-23T06:45:34.271Z,9.60
2019-02-23T06:47:48.007Z,6.40
2019-02-23T06:49:59.332Z,4.60
2019-02-23T06:52:13.119Z,5.70
2019-02-23T06:53:20.059Z,6.60
2019-02-23T06:54:10.256Z,7.30
2019-02-23T06:56:23.430Z,5.30
2019-02-23T06:57:23.262Z,6.40
2019-02-23T06:58:33.969Z,6.70
2019-02-23T06:59:31.893Z,6.40
2019-02-23T07:00:24.653Z,7.20
2019-02-23T07:01:23.221Z,7.10
2019-02-23T07:02:36.413Z,8.10
2019-02-23T07:03:23.198Z,7.20
2019-02-23T07:04:31.836Z,8.00
2019-02-23T07:05:23.793Z,6.60
2019-02-23T07:06:23.137Z,7.00
2019-02-23T07:07:25.789Z,6.60
2019-02-23T07:08:23.150Z,8.20
2019-02-23T07:09:23.084Z,7.80
2019-02-23T07:10:31.807Z,7.00
2019-02-23T07:11:23.088Z,8.20
2019-02-23T07:12:32.576Z,6.40
2019-02-23T07:13:23.073Z,7.50
2019-02-23T07:14:23.030Z,9.50
2019-02-23T07:15:35.618Z,9.50
2019-02-23T07:16:23.025Z,6.30
2019-02-23T07:17:23.023Z,7.20
2019-02-23T07:18:36.062Z,8.00
2019-02-23T07:20:44.117Z,8.40
2019-02-23T07:21:38.856Z,7.10
2019-02-23T07:22:48.558Z,7.40
2019-02-23T07:23:39.495Z,8.20
2019-02-23T07:24:37.798Z,10.30
2019-02-23T07:25:37.838Z,8.50
2019-02-23T07:26:37.820Z,6.30
2019-02-23T07:27:37.906Z,8.60
2019-02-23T07:28:37.763Z,7.60
2019-02-23T07:29:37.727Z,8.50
2019-02-23T07:32:02.237Z,6.40
2019-02-23T07:33:02.127Z,7.80
2019-02-23T07:34:02.005Z,10.70
2019-02-23T07:35:02.039Z,9.00
2019-02-23T07:36:02.026Z,7.00
2019-02-23T07:37:02.018Z,7.40
2019-02-23T07:38:01.976Z,8.10
2019-02-23T07:39:02.005Z,8.30
2019-02-23T07:40:01.956Z,7.80
2019-02-23T07:41:01.958Z,7.90
2019-02-23T07:42:01.973Z,8.20
2019-02-23T07:43:01.904Z,7.10
2019-02-23T07:44:03.544Z,7.20
2019-02-23T07:45:01.911Z,6.70
2019-02-23T07:46:01.954Z,8.40
2019-02-23T07:47:01.925Z,7.70
2019-02-23T07:48:01.921Z,7.00
2019-02-23T07:49:01.886Z,7.80
2019-02-23T07:50:01.854Z,7.20
2019-02-23T07:51:01.848Z,7.30
2019-02-23T07:52:01.889Z,9.00
2019-02-23T07:53:01.813Z,10.70
2019-02-23T07:54:01.870Z,8.30
2019-02-23T07:55:01.780Z,8.00
2019-02-23T07:56:01.794Z,9.10
2019-02-23T07:57:01.760Z,11.00
2019-02-23T07:58:01.765Z,10.30
2019-02-23T07:59:01.774Z,9.40
2019-02-23T08:00:01.771Z,8.90
2019-02-23T08:01:01.771Z,8.20
2019-02-23T08:02:01.758Z,8.20
2019-02-23T08:03:01.778Z,8.10
2019-02-23T08:04:01.840Z,8.50
2019-02-23T08:05:01.698Z,9.50
2019-02-23T08:06:01.648Z,8.70
2019-02-23T08:07:01.661Z,8.30
2019-02-23T08:08:01.635Z,8.80
2019-02-23T08:09:01.620Z,8.90
2019-02-23T08:10:01.627Z,8.10
2019-02-23T08:11:01.594Z,8.20
2019-02-23T08:12:01.591Z,8.90
2019-02-23T08:13:01.573Z,9.70
2019-02-23T08:14:01.578Z,8.20
2019-02-23T08:15:01.567Z,7.60
2019-02-23T08:16:01.541Z,7.90
2019-02-23T08:17:01.527Z,8.20
2019-02-23T08:18:01.519Z,7.00
2019-02-23T08:19:01.523Z,7.00
2019-02-23T08:20:01.497Z,9.50
2019-02-23T08:21:01.507Z,8.00
2019-02-23T08:22:01.482Z,7.20
2019-02-23T08:23:01.465Z,7.20
2019-02-23T08:24:01.469Z,7.70
2019-02-23T08:25:01.457Z,8.70
2019-02-23T08:26:01.426Z,7.50
2019-02-23T08:27:01.426Z,7.70
2019-02-23T08:28:01.406Z,8.80
2019-02-23T08:29:01.438Z,6.90
2019-02-23T08:30:01.415Z,7.70
2019-02-23T08:31:01.380Z,7.40
2019-02-23T08:32:01.359Z,7.90
2019-02-23T08:33:01.359Z,7.60
2019-02-23T08:34:01.345Z,10.20
2019-02-23T08:35:01.368Z,8.20
2019-02-23T08:36:01.338Z,7.50
2019-02-23T08:37:01.314Z,7.70
2019-02-23T08:38:01.299Z,7.40
2019-02-23T08:39:01.289Z,7.30
2019-02-23T08:40:01.282Z,8.80
2019-02-23T08:41:01.291Z,8.40
2019-02-23T08:42:01.269Z,7.60
2019-02-23T08:43:01.250Z,7.20
2019-02-23T08:44:01.240Z,6.90
2019-02-23T08:45:01.230Z,7.40
2019-02-23T08:46:01.215Z,6.30
2019-02-23T08:47:01.237Z,6.00
2019-02-23T08:48:01.187Z,6.50
2019-02-23T08:49:01.174Z,6.90
2019-02-23T08:50:01.167Z,6.30
2019-02-23T08:51:01.153Z,7.30
2019-02-23T08:52:02.054Z,10.40
2019-02-23T08:53:01.170Z,6.80
2019-02-23T08:54:01.129Z,6.60
2019-02-23T08:55:01.116Z,7.10
2019-02-23T08:56:02.072Z,5.40
2019-02-23T08:57:01.090Z,8.30
2019-02-23T08:58:01.097Z,5.60
2019-02-23T08:59:01.091Z,5.00
2019-02-23T09:00:01.064Z,5.40
2019-02-23T09:01:01.046Z,9.40
2019-02-23T09:02:01.042Z,7.60
2019-02-23T09:03:01.050Z,7.70
2019-02-23T09:04:01.024Z,7.60
2019-02-23T09:05:01.014Z,6.30
2019-02-23T09:06:00.990Z,6.10
2019-02-23T09:07:01.009Z,7.70
2019-02-23T09:08:01.032Z,7.20
2019-02-23T09:09:00.984Z,7.60
2019-02-23T09:10:00.953Z,6.50
2019-02-23T09:11:00.939Z,6.50
2019-02-23T09:12:00.933Z,5.50
2019-02-23T09:13:00.914Z,7.50
2019-02-23T09:14:11.924Z,5.50
2019-02-23T09:15:01.012Z,5.80
2019-02-23T09:16:01.040Z,6.30
2019-02-23T09:17:01.038Z,7.20
2019-02-23T09:18:00.908Z,5.80
2019-02-23T09:19:00.876Z,6.40
2019-02-23T09:20:00.842Z,6.50
2019-02-23T09:21:00.845Z,6.60
2019-02-23T09:22:00.817Z,6.80
2019-02-23T09:23:00.813Z,6.60
2019-02-23T09:24:00.794Z,8.10
2019-02-23T09:25:00.833Z,7.10
2019-02-23T09:26:00.776Z,6.00
2019-02-23T09:27:00.763Z,5.50
2019-02-23T09:28:00.746Z,7.60
2019-02-23T09:29:00.750Z,6.20
2019-02-23T09:30:00.771Z,8.10
2019-02-23T09:31:00.753Z,5.40
2019-02-23T09:32:01.805Z,7.70
2019-02-23T09:33:01.696Z,4.80
2019-02-23T09:34:00.690Z,6.60
2019-02-23T09:35:00.716Z,6.80
2019-02-23T09:36:12.081Z,6.60
2019-02-23T09:37:00.796Z,6.60
2019-02-23T09:39:18.092Z,5.10
2019-02-23T09:40:17.978Z,5.20
2019-02-23T09:41:17.951Z,6.40
2019-02-23T09:42:17.895Z,5.60
2019-02-23T09:43:18.008Z,6.10
2019-02-23T09:44:27.845Z,6.30
2019-02-23T09:45:50.482Z,7.20
2019-02-23T09:46:17.944Z,7.10
2019-02-23T09:47:17.895Z,5.20
2019-02-23T09:48:17.818Z,5.70
2019-02-23T09:49:17.856Z,4.80
2019-02-23T09:50:17.766Z,5.10
2019-02-23T09:51:17.704Z,4.10
2019-02-23T09:52:17.722Z,5.10
2019-02-23T09:53:17.716Z,6.10
2019-02-23T09:54:17.675Z,6.00
2019-02-23T09:55:18.605Z,7.30
2019-02-23T09:56:17.651Z,6.70
2019-02-23T09:57:17.654Z,6.80
2019-02-23T09:58:17.649Z,5.20
2019-02-23T09:59:17.611Z,5.10
2019-02-23T10:00:17.599Z,6.00
2019-02-23T10:01:17.589Z,5.80
2019-02-23T10:02:17.637Z,6.10
2019-02-23T10:03:17.568Z,5.30
2019-02-23T10:04:17.572Z,6.30
2019-02-23T10:05:17.609Z,4.90
2019-02-23T10:06:17.540Z,4.70
2019-02-23T10:07:17.522Z,5.10
2019-02-23T10:08:17.559Z,5.90
2019-02-23T10:09:17.499Z,7.00
2019-02-23T10:10:17.501Z,4.70
2019-02-23T10:11:17.490Z,4.20
2019-02-23T10:12:17.465Z,5.10
2019-02-23T10:13:17.494Z,4.80
2019-02-23T10:14:17.479Z,4.50
2019-02-23T10:15:17.435Z,4.10
2019-02-23T10:16:17.424Z,4.60
2019-02-23T10:17:17.442Z,4.10
2019-02-23T10:18:17.403Z,4.40
2019-02-23T10:19:17.454Z,5.10
2019-02-23T10:20:17.375Z,4.40
2019-02-23T10:21:17.366Z,5.30
2019-02-23T10:22:18.385Z,6.40
2019-02-23T10:23:22.170Z,5.00
2019-02-23T10:24:17.340Z,3.40
2019-02-23T10:25:17.407Z,3.00
2019-02-23T10:26:17.313Z,3.70
2019-02-23T10:27:17.310Z,3.70
2019-02-23T10:28:17.301Z,3.30
2019-02-23T10:29:17.325Z,3.80
2019-02-23T10:30:17.275Z,5.20
2019-02-23T10:31:18.048Z,3.90
2019-02-23T10:32:17.252Z,4.40
2019-02-23T10:33:17.257Z,6.10
2019-02-23T10:34:17.226Z,6.30
2019-02-23T10:35:17.219Z,6.00
2019-02-23T10:36:17.216Z,5.00
2019-02-23T10:37:17.192Z,4.40
2019-02-23T10:38:17.287Z,4.60
2019-02-23T10:39:17.180Z,5.80
2019-02-23T10:40:17.176Z,4.00
2019-02-23T10:41:17.169Z,5.50
2019-02-23T10:42:18.160Z,3.80
2019-02-23T10:43:17.129Z,4.20
2019-02-23T10:44:17.112Z,3.70
2019-02-23T10:45:17.110Z,4.20
2019-02-23T10:46:17.139Z,4.30
2019-02-23T10:47:17.124Z,3.40
2019-02-23T10:48:17.069Z,4.30
2019-02-23T10:49:17.062Z,4.40
2019-02-23T10:50:17.066Z,3.70
2019-02-23T10:51:18.083Z,3.80
2019-02-23T10:52:17.050Z,3.50
2019-02-23T10:53:17.007Z,4.50
2019-02-23T10:54:17.012Z,4.20
2019-02-23T10:55:16.991Z,4.60
2019-02-23T10:56:16.985Z,3.60
2019-02-23T10:57:17.002Z,4.10
2019-02-23T10:58:16.967Z,4.40
2019-02-23T10:59:16.967Z,5.00
2019-02-23T11:00:16.943Z,6.10
2019-02-23T11:01:16.923Z,4.10
2019-02-23T11:02:16.982Z,4.10
2019-02-23T11:03:16.907Z,5.00
2019-02-23T11:04:16.895Z,4.30
2019-02-23T11:05:16.886Z,5.00
2019-02-23T11:06:16.881Z,5.90
2019-02-23T11:07:16.856Z,6.70
2019-02-23T11:08:16.902Z,5.10
2019-02-23T11:09:16.831Z,6.50
2019-02-23T11:10:16.827Z,5.70
2019-02-23T11:11:16.824Z,6.20
2019-02-23T11:12:16.802Z,4.90
2019-02-23T11:13:16.788Z,18.70
2019-02-23T11:14:16.805Z,6.30
2019-02-23T11:15:26.411Z,5.10
2019-02-23T11:16:16.872Z,8.20
2019-02-23T11:17:16.935Z,8.70
2019-02-23T11:18:16.814Z,7.00
2019-02-23T11:19:16.931Z,5.90
2019-02-23T11:20:16.766Z,5.60
2019-02-23T11:21:16.698Z,5.20
2019-02-23T11:22:16.682Z,5.00
2019-02-23T11:23:16.732Z,8.20
2019-02-23T11:24:18.383Z,4.40
2019-02-23T11:25:16.672Z,4.90
2019-02-23T11:26:16.680Z,7.60
2019-02-23T11:27:16.660Z,11.10
2019-02-23T11:28:16.623Z,3.90
2019-02-23T11:29:16.629Z,5.00
2019-02-23T11:30:25.402Z,5.40
2019-02-23T11:32:28.057Z,3.20
2019-02-23T11:34:43.796Z,4.10
2019-02-23T11:35:43.689Z,5.10
2019-02-23T11:36:43.669Z,4.30
2019-02-23T11:38:54.995Z,4.10
2019-02-23T11:39:54.896Z,4.70
2019-02-23T11:40:54.867Z,3.80
2019-02-23T11:41:54.836Z,5.20
2019-02-23T11:42:54.915Z,5.30
2019-02-23T11:43:54.765Z,3.80
2019-02-23T11:44:54.712Z,4.90
2019-02-23T11:45:54.736Z,4.10
2019-02-23T11:47:00.721Z,4.00
2019-02-23T11:47:55.734Z,3.90
2019-02-23T11:48:54.727Z,5.40
2019-02-23T11:49:54.664Z,3.90
2019-02-23T11:50:54.664Z,6.60
2019-02-23T11:51:54.635Z,4.20
2019-02-23T11:52:54.628Z,4.20
2019-02-23T11:53:55.402Z,5.90
2019-02-23T11:54:54.606Z,6.90
2019-02-23T11:55:54.589Z,4.30
2019-02-23T11:56:54.578Z,8.80
2019-02-23T11:57:54.574Z,6.90
2019-02-23T11:58:54.557Z,5.70
2019-02-23T11:59:54.551Z,4.90
2019-02-23T12:00:54.640Z,4.10
2019-02-23T12:01:54.530Z,4.80
2019-02-23T12:02:54.506Z,5.20
2019-02-23T12:03:54.497Z,4.80
2019-02-23T12:04:54.508Z,4.00
2019-02-23T12:05:54.481Z,3.90
2019-02-23T12:06:54.469Z,3.80
2019-02-23T12:07:54.487Z,4.10
2019-02-23T12:08:54.447Z,5.20
2019-02-23T12:09:54.479Z,3.90
2019-02-23T12:10:54.469Z,5.00
2019-02-23T12:11:54.413Z,3.80
2019-02-23T12:12:54.404Z,3.60
2019-02-23T12:13:54.415Z,4.60
2019-02-23T12:14:54.398Z,4.20
2019-02-23T12:15:54.404Z,4.60
2019-02-23T12:16:54.359Z,3.80
2019-02-23T12:17:54.347Z,4.20
2019-02-23T12:18:54.360Z,3.70
2019-02-23T12:19:55.405Z,3.90
2019-02-23T12:20:54.313Z,3.20
2019-02-23T12:21:54.330Z,3.60
2019-02-23T12:22:54.290Z,4.30
2019-02-23T12:23:54.286Z,5.10
2019-02-23T12:24:54.266Z,3.90
2019-02-23T12:25:54.249Z,4.00
2019-02-23T12:26:54.246Z,4.00
2019-02-23T12:27:54.253Z,6.20
2019-02-23T12:28:54.254Z,4.00
2019-02-23T12:29:54.218Z,5.30
2019-02-23T12:30:54.210Z,4.50
2019-02-23T12:31:54.189Z,4.30
2019-02-23T12:32:54.194Z,4.50
2019-02-23T12:33:54.190Z,3.30
2019-02-23T12:34:54.161Z,5.40
2019-02-23T12:35:54.152Z,2.90
2019-02-23T12:36:54.144Z,4.20
2019-02-23T12:37:54.182Z,2.80
2019-02-23T12:38:54.110Z,3.40
2019-02-23T12:39:55.031Z,7.70
2019-02-23T12:40:55.007Z,3.40
2019-02-23T12:41:54.088Z,3.40
2019-02-23T12:42:54.075Z,21.40
2019-02-23T12:43:54.051Z,3.80
2019-02-23T12:44:54.073Z,43.20
2019-02-23T12:45:54.057Z,20.60
2019-02-23T12:46:54.021Z,3.70
2019-02-23T12:47:54.016Z,4.70
2019-02-23T12:48:54.000Z,4.20
2019-02-23T12:49:53.983Z,5.20
2019-02-23T12:50:53.982Z,3.10
2019-02-23T12:51:54.037Z,3.70
2019-02-23T12:52:53.951Z,4.00
2019-02-23T12:53:53.956Z,3.80
2019-02-23T12:54:53.935Z,2.90
2019-02-23T12:55:53.925Z,3.00
2019-02-23T12:56:53.914Z,3.30
2019-02-23T12:57:53.918Z,2.90
2019-02-23T12:58:53.894Z,3.20
2019-02-23T12:59:53.931Z,2.40
2019-02-23T13:00:53.868Z,2.70
2019-02-23T13:01:53.864Z,3.10
2019-02-23T13:02:53.870Z,2.60
2019-02-23T13:03:53.829Z,3.60
2019-02-23T13:04:53.830Z,2.20
2019-02-23T13:05:53.820Z,4.30
2019-02-23T13:06:53.807Z,2.80
2019-02-23T13:07:53.805Z,2.70
2019-02-23T13:08:53.790Z,3.10
2019-02-23T13:09:53.792Z,2.70
2019-02-23T13:10:53.764Z,4.10
2019-02-23T13:11:53.742Z,3.20
2019-02-23T13:12:53.731Z,2.30
2019-02-23T13:13:53.733Z,3.60
2019-02-23T13:14:53.701Z,2.30
2019-02-23T13:15:53.697Z,2.90
2019-02-23T13:16:53.684Z,2.70
2019-02-23T13:17:53.712Z,2.90
2019-02-23T13:18:53.691Z,2.40
2019-02-23T13:19:53.652Z,3.60
2019-02-23T13:20:53.637Z,2.80
2019-02-23T13:21:53.633Z,3.90
2019-02-23T13:22:53.620Z,3.10
2019-02-23T13:23:53.709Z,4.10
2019-02-23T13:24:53.610Z,3.00
2019-02-23T13:25:53.583Z,3.60
2019-02-23T13:26:53.574Z,3.30
2019-02-23T13:27:53.593Z,2.60
2019-02-23T13:28:53.548Z,2.90
2019-02-23T13:29:53.613Z,2.10
2019-02-23T13:30:53.539Z,2.30
2019-02-23T13:31:53.519Z,2.00
2019-02-23T13:32:53.504Z,3.30
2019-02-23T13:33:53.501Z,2.50
2019-02-23T13:34:53.488Z,5.30
2019-02-23T13:35:53.502Z,3.10
2019-02-23T13:36:53.463Z,3.50
2019-02-23T13:37:53.469Z,3.60
2019-02-23T13:38:53.441Z,4.00
2019-02-23T13:39:53.428Z,3.50
2019-02-23T13:40:53.436Z,3.40
2019-02-23T13:41:53.411Z,3.70